Time;durP1;ratioP1;P1;durP2;ratioP2;P2;SDS_P1;SDS_P2;PMS_P1;PMS_P2;Temp;Humidity;BMP_temperature;BMP_pressure;BME280_temperature;BME280_humidity;BME280_pressure;Samples;Min_cycle;Max_cycle;Signal;HPM_P1;HPM_P2
2022/07/19 00:00:28;;;;;;;;;;;;;;;28.55;35.93;99474.31;2072368;28;20328;-68
2022/07/19 00:01:28;;;;;;;;;;;;;;;28.54;35.89;99472.63;2069345;28;20407;-68
2022/07/19 00:02:29;;;;;;;;;;;;;;;28.55;36.08;99471.53;2071531;28;19920;-68
2022/07/19 00:03:29;;;;;;;;;;;;;;;28.54;36.03;99471.75;2070813;28;20407;-68
2022/07/19 00:04:30;;;;;;;;;;;;;;;28.54;36.13;99468.97;2067015;28;20028;-68
2022/07/19 00:05:30;;;;;;;;;;;;;;;28.53;36.03;99470.06;2066661;28;19921;-68
2022/07/19 00:06:30;;;;;;;;;;;;;;;28.53;36.34;99476.44;2071265;28;19917;-68
2022/07/19 00:07:31;;;;;;;;;;;;;;;28.53;36.27;99465.38;2065929;28;20008;-68
2022/07/19 00:08:31;;;;;;;;;;;;;;;28.52;36.20;99469.22;2063623;28;19913;-68
2022/07/19 00:09:32;;;;;;;;;;;;;;;28.53;35.83;99468.13;2065526;28;19949;-68
2022/07/19 00:10:32;;;;;;;;;;;;;;;28.52;35.90;99466.44;2063178;28;20008;-68
2022/07/19 00:11:32;;;;;;;;;;;;;;;28.52;35.58;99469.22;2071964;28;19913;-68
2022/07/19 00:12:33;;;;;;;;;;;;;;;28.53;35.80;99464.53;2067197;28;20003;-68
2022/07/19 00:13:33;;;;;;;;;;;;;;;28.53;35.99;99470.06;2065720;28;20185;-68
2022/07/19 00:14:33;;;;;;;;;;;;;;;28.52;34.85;99466.44;2073108;28;19917;-67
2022/07/19 00:15:33;;;;;;;;;;;;;;;28.52;35.23;99463.69;2072449;28;19971;-68
2022/07/19 00:16:34;;;;;;;;;;;;;;;28.51;35.30;99461.97;2070826;28;19917;-68
2022/07/19 00:17:34;;;;;;;;;;;;;;;28.52;35.78;99469.22;2074373;28;19916;-68
2022/07/19 00:18:35;;;;;;;;;;;;;;;28.51;35.58;99464.75;2068702;28;20165;-68
2022/07/19 00:19:35;;;;;;;;;;;;;;;28.52;35.46;99463.69;2074796;28;20261;-68
2022/07/19 00:20:35;;;;;;;;;;;;;;;28.52;35.39;99469.22;2072508;28;19917;-68
2022/07/19 00:21:36;;;;;;;;;;;;;;;28.50;34.86;99465.81;2072126;28;20788;-68
2022/07/19 00:22:36;;;;;;;;;;;;;;;28.51;35.38;99461.97;2073321;28;20328;-68
2022/07/19 00:23:37;;;;;;;;;;;;;;;28.51;34.68;99455.56;2066808;28;20007;-68
2022/07/19 00:24:37;;;;;;;;;;;;;;;28.49;34.49;99458.56;2068879;28;19921;-68
2022/07/19 00:25:37;;;;;;;;;;;;;;;28.50;34.94;99454.75;2066839;28;20448;-67
2022/07/19 00:26:38;;;;;;;;;;;;;;;28.50;35.13;99457.50;2072365;28;19924;-68
2022/07/19 00:27:40;;;;;;;;;;;;;;;28.49;34.96;99455.78;2061748;28;19924;-68
2022/07/19 00:28:40;;;;;;;;;;;;;;;28.50;34.98;99453.91;2062945;28;20059;-68
2022/07/19 00:29:40;;;;;;;;;;;;;;;28.50;35.12;99457.50;2071725;28;19925;-68
2022/07/19 00:30:41;;;;;;;;;;;;;;;28.47;34.64;99455.19;2069142;28;19917;-68
2022/07/19 00:31:41;;;;;;;;;;;;;;;28.48;34.28;99456.03;2070967;28;19909;-68
2022/07/19 00:32:41;;;;;;;;;;;;;;;28.48;34.28;99450.50;2072770;28;19920;-66
2022/07/19 00:33:42;;;;;;;;;;;;;;;28.48;34.32;99450.50;2070406;28;19967;-67
2022/07/19 00:34:42;;;;;;;;;;;;;;;28.48;34.38;99448.56;2066749;28;20013;-66
2022/07/19 00:35:45;;;;;;;;;;;;;;;28.49;34.64;99452.19;2058641;28;19910;-66
2022/07/19 00:36:45;;;;;;;;;;;;;;;28.49;34.80;99446.63;2066072;28;20690;-66
2022/07/19 00:37:45;;;;;;;;;;;;;;;28.49;34.80;99444.69;2064349;28;20434;-67
2022/07/19 00:38:46;;;;;;;;;;;;;;;28.50;34.89;99443.66;2063624;28;19921;-67
2022/07/19 00:39:46;;;;;;;;;;;;;;;28.49;34.79;99444.69;2067776;28;20303;-67
2022/07/19 00:40:46;;;;;;;;;;;;;;;28.50;35.19;99440.03;2062278;28;20420;-66
2022/07/19 00:41:47;;;;;;;;;;;;;;;28.49;35.12;99441.94;2067226;28;19917;-66
2022/07/19 00:42:47;;;;;;;;;;;;;;;28.49;35.22;99436.38;2065980;28;20364;-67
2022/07/19 00:43:50;;;;;;;;;;;;;;;28.47;35.01;99435.78;2061530;28;19917;-66
2022/07/19 00:44:51;;;;;;;;;;;;;;;28.48;34.84;99440.25;2066378;28;20012;-67
2022/07/19 00:45:51;;;;;;;;;;;;;;;28.48;34.86;99443.03;2065778;28;19967;-66
2022/07/19 00:46:51;;;;;;;;;;;;;;;28.48;34.94;99434.72;2064959;28;19918;-66
2022/07/19 00:47:51;;;;;;;;;;;;;;;28.49;35.20;99435.53;2066728;28;20307;-66
2022/07/19 00:48:52;;;;;;;;;;;;;;;28.49;35.08;99436.38;2065788;28;20382;-67
2022/07/19 00:49:52;;;;;;;;;;;;;;;28.48;35.19;99434.72;2066825;28;19913;-66
2022/07/19 00:50:52;;;;;;;;;;;;;;;28.48;34.97;99434.72;2065007;28;19971;-67
2022/07/19 00:51:53;;;;;;;;;;;;;;;28.48;34.90;99431.94;2065034;28;19979;-67
2022/07/19 00:52:55;;;;;;;;;;;;;;;28.48;34.98;99431.94;2065983;28;19924;-66
2022/07/19 00:53:56;;;;;;;;;;;;;;;28.46;34.49;99441.56;2064192;28;19917;-66
2022/07/19 00:54:58;;;;;;;;;;;;;;;28.45;34.19;99435.16;2073452;28;19916;-66
2022/07/19 00:55:59;;;;;;;;;;;;;;;28.46;34.49;99436.84;2074669;28;19916;-66
2022/07/19 00:57:00;;;;;;;;;;;;;;;28.47;34.79;99427.47;2062115;28;19917;-67
2022/07/19 00:58:01;;;;;;;;;;;;;;;28.47;34.49;99433.03;2062440;28;19917;-66
2022/07/19 00:59:02;;;;;;;;;;;;;;;28.45;34.25;99435.16;2059783;28;19917;-66
2022/07/19 01:00:03;;;;;;;;;;;;;;;28.46;34.11;99433.25;2066208;28;20666;-66
2022/07/19 01:01:04;;;;;;;;;;;;;;;28.46;34.39;99427.69;2062428;28;20579;-67
2022/07/19 01:02:04;;;;;;;;;;;;;;;28.45;34.01;99429.63;2065903;28;20421;-66
2022/07/19 01:03:07;;;;;;;;;;;;;;;28.45;34.12;99428.75;2058481;28;20304;-67
2022/07/19 01:04:08;;;;;;;;;;;;;;;28.43;33.95;99427.03;2067585;28;19999;-67
2022/07/19 01:05:09;;;;;;;;;;;;;;;28.44;33.83;99422.34;2059461;28;20556;-66
2022/07/19 01:06:13;;;;;;;;;;;;;;;28.45;34.06;99429.63;2065912;28;19917;-66
2022/07/19 01:07:13;;;;;;;;;;;;;;;28.45;34.03;99425.97;2063925;28;19909;-66
2022/07/19 01:08:13;;;;;;;;;;;;;;;28.46;34.26;99419.38;2064143;28;19910;-66
2022/07/19 01:09:13;;;;;;;;;;;;;;;28.45;34.42;99426.84;2063922;28;20586;-67
2022/07/19 01:10:14;;;;;;;;;;;;;;;28.45;34.43;99421.31;2062747;28;20372;-67
2022/07/19 01:11:15;;;;;;;;;;;;;;;28.46;34.39;99428.53;2067646;28;19928;-66
2022/07/19 01:12:16;;;;;;;;;;;;;;;28.45;34.46;99424.09;2064303;28;19943;-67
2022/07/19 01:13:16;;;;;;;;;;;;;;;28.45;34.39;99428.75;2059747;28;19961;-66
2022/07/19 01:14:16;;;;;;;;;;;;;;;28.47;34.31;99433.03;2060832;28;19917;-67
2022/07/19 01:15:21;;;;;;;;;;;;;;;28.45;34.38;99424.09;2060056;28;19917;-67
2022/07/19 01:16:22;;;;;;;;;;;;;;;28.45;34.24;99429.63;2063801;28;19921;-66
2022/07/19 01:17:22;;;;;;;;;;;;;;;28.45;34.43;99424.09;2060973;28;19928;-66
2022/07/19 01:18:23;;;;;;;;;;;;;;;28.44;34.46;99422.34;2057441;28;20444;-66
2022/07/19 01:19:23;;;;;;;;;;;;;;;28.45;34.45;99425.97;2065294;28;20012;-66
2022/07/19 01:20:24;;;;;;;;;;;;;;;28.44;34.47;99419.56;2063253;28;20447;-66
2022/07/19 01:21:26;;;;;;;;;;;;;;;28.45;34.52;99426.84;2064043;28;19917;-66
2022/07/19 01:22:26;;;;;;;;;;;;;;;28.44;34.18;99425.09;2065273;28;19917;-67
2022/07/19 01:23:26;;;;;;;;;;;;;;;28.45;34.44;99429.63;2068000;28;19917;-67
2022/07/19 01:24:27;;;;;;;;;;;;;;;28.44;34.57;99427.88;2068007;28;19921;-66
2022/07/19 01:25:30;;;;;;;;;;;;;;;28.42;33.71;99424.50;2064688;28;20026;-67
2022/07/19 01:26:30;;;;;;;;;;;;;;;28.42;33.64;99430.06;2068436;28;20597;-66
2022/07/19 01:27:30;;;;;;;;;;;;;;;28.41;33.51;99422.78;2065294;28;20066;-66
2022/07/19 01:28:31;;;;;;;;;;;;;;;28.41;33.37;99420.88;2064970;28;20384;-66
2022/07/19 01:29:32;;;;;;;;;;;;;;;28.41;33.31;99417.25;2070170;28;20075;-67
2022/07/19 01:30:33;;;;;;;;;;;;;;;28.42;33.35;99416.19;2062733;28;19925;-66
2022/07/19 01:31:33;;;;;;;;;;;;;;;28.42;33.49;99413.44;2071743;28;19963;-67
2022/07/19 01:32:33;;;;;;;;;;;;;;;28.41;33.35;99411.72;2067603;28;19921;-67
2022/07/19 01:33:44;;;;;;;;;;;;;;;28.42;33.48;99416.19;2072827;28;19970;-67
2022/07/19 01:34:45;;;;;;;;;;;;;;;28.43;33.55;99415.09;2066861;28;20585;-66
2022/07/19 01:35:45;;;;;;;;;;;;;;;28.44;33.75;99419.56;2060882;28;20109;-67
2022/07/19 01:36:45;;;;;;;;;;;;;;;28.43;33.74;99412.34;2070408;28;20080;-66
2022/07/19 01:37:46;;;;;;;;;;;;;;;28.42;33.75;99413.44;2068341;28;19956;-66
2022/07/19 01:38:46;;;;;;;;;;;;;;;28.43;33.64;99415.09;2063159;28;20437;-66
2022/07/19 01:39:46;;;;;;;;;;;;;;;28.42;33.79;99410.66;2072661;28;20299;-66
2022/07/19 01:40:46;;;;;;;;;;;;;;;28.44;34.11;99414.03;2064053;28;19971;-67
2022/07/19 01:41:47;;;;;;;;;;;;;;;28.44;34.23;99411.25;2066875;28;19956;-66
2022/07/19 01:42:47;;;;;;;;;;;;;;;28.43;34.14;99420.66;2070149;28;19920;-66
2022/07/19 01:43:47;;;;;;;;;;;;;;;28.43;34.26;99417.88;2064942;28;19917;-67
2022/07/19 01:44:48;;;;;;;;;;;;;;;28.44;34.24;99416.78;2072367;28;19921;-66
2022/07/19 01:45:48;;;;;;;;;;;;;;;28.42;34.30;99414.25;2065115;28;19915;-67
2022/07/19 01:46:48;;;;;;;;;;;;;;;28.44;34.38;99419.56;2070378;28;20066;-67
2022/07/19 01:47:48;;;;;;;;;;;;;;;28.43;34.44;99404.84;2065764;28;19953;-66
2022/07/19 01:48:49;;;;;;;;;;;;;;;28.43;34.52;99407.63;2067926;28;19924;-67
2022/07/19 01:49:49;;;;;;;;;;;;;;;28.43;34.60;99415.94;2069731;28;19921;-67
2022/07/19 01:50:50;;;;;;;;;;;;;;;28.43;34.61;99410.41;2072132;28;19916;-66
2022/07/19 01:51:50;;;;;;;;;;;;;;;28.43;34.60;99415.09;2064456;28;19928;-66
2022/07/19 01:52:50;;;;;;;;;;;;;;;28.43;34.86;99409.56;2066511;28;19955;-67
2022/07/19 01:53:51;;;;;;;;;;;;;;;28.42;34.84;99413.44;2068396;28;19916;-66
2022/07/19 01:54:51;;;;;;;;;;;;;;;28.42;34.95;99407.88;2065504;28;20020;-66
2022/07/19 01:55:51;;;;;;;;;;;;;;;28.43;34.99;99412.34;2066943;28;19909;-66
2022/07/19 01:56:52;;;;;;;;;;;;;;;28.41;34.72;99420.03;2060996;28;19910;-66
2022/07/19 01:57:52;;;;;;;;;;;;;;;28.42;34.74;99416.19;2067197;28;19913;-66
2022/07/19 01:58:52;;;;;;;;;;;;;;;28.41;34.89;99411.72;2071310;28;19951;-67
2022/07/19 01:59:52;;;;;;;;;;;;;;;28.40;34.94;99416.41;2071168;28;20039;-66
2022/07/19 02:00:53;;;;;;;;;;;;;;;28.40;34.79;99419.19;2065277;28;19959;-67
2022/07/19 02:01:53;;;;;;;;;;;;;;;28.40;34.87;99415.56;2065376;28;19915;-67
2022/07/19 02:02:53;;;;;;;;;;;;;;;28.40;34.73;99412.78;2066838;28;19940;-67
2022/07/19 02:03:54;;;;;;;;;;;;;;;28.40;34.67;99415.56;2067012;28;19953;-66
2022/07/19 02:04:54;;;;;;;;;;;;;;;28.39;34.67;99409.19;2064648;28;19921;-67
2022/07/19 02:05:55;;;;;;;;;;;;;;;28.39;34.31;99413.84;2063574;28;19983;-66
2022/07/19 02:06:55;;;;;;;;;;;;;;;28.39;34.34;99413.84;2060966;28;19921;-66
2022/07/19 02:07:56;;;;;;;;;;;;;;;28.39;34.18;99402.78;2065049;28;19917;-66
2022/07/19 02:08:56;;;;;;;;;;;;;;;28.39;33.99;99409.19;2067244;28;19917;-66
2022/07/19 02:09:57;;;;;;;;;;;;;;;28.38;33.77;99406.63;2064958;28;20549;-66
2022/07/19 02:10:59;;;;;;;;;;;;;;;28.39;33.67;99408.31;2062863;28;19917;-66
2022/07/19 02:11:59;;;;;;;;;;;;;;;28.38;33.73;99406.63;2060543;28;20639;-66
2022/07/19 02:12:59;;;;;;;;;;;;;;;28.37;33.69;99404.91;2063624;28;19953;-66
2022/07/19 02:14:00;;;;;;;;;;;;;;;28.37;33.57;99410.47;2068095;28;19964;-68
2022/07/19 02:15:00;;;;;;;;;;;;;;;28.37;33.72;99405.78;2063975;28;19945;-66
2022/07/19 02:16:01;;;;;;;;;;;;;;;28.38;33.59;99406.63;2066118;28;19959;-66
2022/07/19 02:17:01;;;;;;;;;;;;;;;28.37;33.58;99400.25;2068007;28;19913;-66
2022/07/19 02:18:03;;;;;;;;;;;;;;;28.38;33.69;99409.41;2068412;28;19935;-67
2022/07/19 02:19:03;;;;;;;;;;;;;;;28.39;33.93;99411.97;2070549;28;20639;-66
2022/07/19 02:20:05;;;;;;;;;;;;;;;28.39;33.87;99406.41;2059395;28;20940;-66
2022/07/19 02:21:05;;;;;;;;;;;;;;;28.38;33.74;99398.31;2065202;28;19940;-67
2022/07/19 02:22:06;;;;;;;;;;;;;;;28.37;34.00;99399.38;2062449;28;20236;-66
2022/07/19 02:23:06;;;;;;;;;;;;;;;28.37;33.86;99404.91;2066444;28;20589;-66
2022/07/19 02:24:07;;;;;;;;;;;;;;;28.38;33.85;99401.09;2069649;28;19991;-67
2022/07/19 02:25:07;;;;;;;;;;;;;;;28.38;34.13;99401.94;2060432;28;20293;-66
2022/07/19 02:26:08;;;;;;;;;;;;;;;28.38;34.14;99398.31;2062808;28;20105;-67
2022/07/19 02:27:09;;;;;;;;;;;;;;;28.38;34.33;99401.09;2066334;28;19917;-66
2022/07/19 02:28:10;;;;;;;;;;;;;;;28.39;34.24;99402.78;2064402;28;19987;-67
2022/07/19 02:29:10;;;;;;;;;;;;;;;28.37;34.14;99399.38;2059466;28;19998;-66
2022/07/19 02:30:11;;;;;;;;;;;;;;;28.38;34.28;99401.09;2065068;28;19914;-66
2022/07/19 02:31:11;;;;;;;;;;;;;;;28.38;34.13;99401.09;2062960;28;19917;-66
2022/07/19 02:32:12;;;;;;;;;;;;;;;28.37;34.21;99396.59;2061768;28;19922;-66
2022/07/19 02:33:12;;;;;;;;;;;;;;;28.37;34.12;99399.38;2059921;28;19916;-66
2022/07/19 02:34:12;;;;;;;;;;;;;;;28.37;34.18;99393.81;2067747;28;19917;-66
2022/07/19 02:35:13;;;;;;;;;;;;;;;28.37;34.28;99399.38;2060604;28;19925;-66
2022/07/19 02:36:13;;;;;;;;;;;;;;;28.37;33.92;99389.16;2062632;28;19963;-66
2022/07/19 02:37:13;;;;;;;;;;;;;;;28.36;33.87;99403.22;2057307;28;19930;-66
2022/07/19 02:38:13;;;;;;;;;;;;;;;28.35;33.64;99396.00;2065094;28;20501;-67
2022/07/19 02:39:14;;;;;;;;;;;;;;;28.34;33.85;99395.13;2067799;28;19909;-66
2022/07/19 02:40:14;;;;;;;;;;;;;;;28.33;33.40;99385.13;2064867;28;19943;-67
2022/07/19 02:41:15;;;;;;;;;;;;;;;28.33;33.29;99392.63;2062854;28;19990;-67
2022/07/19 02:42:15;;;;;;;;;;;;;;;28.34;33.24;99399.84;2067220;28;19951;-67
2022/07/19 02:43:15;;;;;;;;;;;;;;;28.33;33.18;99393.44;2067071;28;19909;-67
2022/07/19 02:44:16;;;;;;;;;;;;;;;28.33;33.39;99384.28;2069247;28;19927;-66
2022/07/19 02:45:16;;;;;;;;;;;;;;;28.34;33.24;99399.84;2064080;28;19917;-66
2022/07/19 02:46:16;;;;;;;;;;;;;;;28.34;33.52;99394.28;2065229;28;19920;-67
2022/07/19 02:47:17;;;;;;;;;;;;;;;28.34;33.59;99383.22;2061491;28;19924;-66
2022/07/19 02:48:17;;;;;;;;;;;;;;;28.34;33.39;99388.75;2066036;28;19959;-66
2022/07/19 02:49:17;;;;;;;;;;;;;;;28.34;33.51;99397.06;2069046;28;19952;-67
2022/07/19 02:50:18;;;;;;;;;;;;;;;28.32;33.33;99390.91;2060130;28;20951;-66
2022/07/19 02:51:18;;;;;;;;;;;;;;;28.32;33.17;99390.91;2063347;28;19948;-66
2022/07/19 02:52:19;;;;;;;;;;;;;;;28.31;32.97;99392.81;2062845;28;20359;-65
2022/07/19 02:53:19;;;;;;;;;;;;;;;28.31;32.92;99389.22;2064044;28;19929;-66
2022/07/19 02:54:19;;;;;;;;;;;;;;;28.30;32.94;99385.59;2066181;28;19921;-67
2022/07/19 02:55:19;;;;;;;;;;;;;;;28.32;32.71;99385.34;2061106;28;20729;-66
2022/07/19 02:56:20;;;;;;;;;;;;;;;28.30;33.05;99388.38;2066910;28;19917;-66
2022/07/19 02:57:20;;;;;;;;;;;;;;;28.30;32.69;99387.53;2064545;28;19971;-67
2022/07/19 02:58:20;;;;;;;;;;;;;;;28.31;32.68;99389.22;2063720;28;19925;-66
2022/07/19 02:59:21;;;;;;;;;;;;;;;28.32;32.77;99390.91;2068148;28;19921;-67
2022/07/19 03:00:21;;;;;;;;;;;;;;;28.31;32.75;99390.06;2066752;28;19928;-66
2022/07/19 03:01:21;;;;;;;;;;;;;;;28.31;32.77;99389.22;2066263;28;19928;-66
2022/07/19 03:02:21;;;;;;;;;;;;;;;28.30;32.67;99387.53;2063668;28;19929;-67
2022/07/19 03:04:41;;;;;;;;;;;;;;;28.29;32.69;99391.34;2060303;28;19940;-66
2022/07/19 03:05:41;;;;;;;;;;;;;;;28.29;32.63;99391.34;2064191;28;19960;-67
2022/07/19 03:06:41;;;;;;;;;;;;;;;28.29;32.25;99396.91;2062578;28;19917;-66
2022/07/19 03:07:42;;;;;;;;;;;;;;;28.28;32.45;99389.69;2067373;28;19916;-66
2022/07/19 03:08:42;;;;;;;;;;;;;;;28.28;32.53;99389.69;2064745;28;19916;-66
2022/07/19 03:09:42;;;;;;;;;;;;;;;28.28;32.46;99395.22;2064636;28;19913;-66
2022/07/19 03:10:43;;;;;;;;;;;;;;;28.29;32.57;99394.13;2068929;28;19909;-66
2022/07/19 03:11:43;;;;;;;;;;;;;;;28.29;32.45;99399.69;2060522;28;20360;-66
2022/07/19 03:12:43;;;;;;;;;;;;;;;28.28;32.28;99401.59;2063330;28;19917;-66
2022/07/19 03:13:44;;;;;;;;;;;;;;;28.28;32.41;99392.44;2068434;28;19974;-65
2022/07/19 03:14:44;;;;;;;;;;;;;;;28.27;32.46;99387.97;2066444;28;20184;-66
2022/07/19 03:15:44;;;;;;;;;;;;;;;28.27;32.39;99393.50;2067582;28;20329;-65
2022/07/19 03:16:44;;;;;;;;;;;;;;;28.28;32.54;99384.13;2063302;28;19921;-66
2022/07/19 03:17:45;;;;;;;;;;;;;;;28.27;32.51;99390.72;2068195;28;20385;-65
2022/07/19 03:18:45;;;;;;;;;;;;;;;28.27;32.47;99388.84;2062701;28;19968;-65
2022/07/19 03:19:46;;;;;;;;;;;;;;;28.27;32.35;99393.50;2065874;28;19933;-66
2022/07/19 03:20:46;;;;;;;;;;;;;;;28.27;32.61;99382.41;2061929;28;19910;-65
2022/07/19 03:21:47;;;;;;;;;;;;;;;28.27;32.59;99387.97;2064961;28;19921;-66
2022/07/19 03:22:47;;;;;;;;;;;;;;;28.27;32.46;99382.41;2060529;28;19917;-65
2022/07/19 03:23:47;;;;;;;;;;;;;;;28.27;32.38;99383.28;2068056;28;19916;-66
2022/07/19 03:24:47;;;;;;;;;;;;;;;28.28;32.46;99386.91;2063181;28;19916;-65
2022/07/19 03:25:48;;;;;;;;;;;;;;;28.26;32.30;99386.28;2061884;28;19936;-65
2022/07/19 03:26:48;;;;;;;;;;;;;;;28.25;32.33;99379.03;2060195;28;20389;-66
2022/07/19 03:27:49;;;;;;;;;;;;;;;28.26;32.31;99383.50;2066155;28;20179;-66
2022/07/19 03:28:49;;;;;;;;;;;;;;;28.26;32.46;99381.59;2062315;28;20303;-66
2022/07/19 03:29:50;;;;;;;;;;;;;;;28.28;32.52;99386.91;2062686;28;19920;-65
2022/07/19 03:30:50;;;;;;;;;;;;;;;28.27;32.58;99390.72;2064924;28;20613;-66
2022/07/19 03:31:50;;;;;;;;;;;;;;;28.26;32.44;99380.75;2067654;28;20771;-65
2022/07/19 03:32:51;;;;;;;;;;;;;;;28.24;32.57;99383.72;2062930;28;20022;-65
2022/07/19 03:33:51;;;;;;;;;;;;;;;28.25;32.36;99379.03;2073629;28;19917;-65
2022/07/19 03:34:51;;;;;;;;;;;;;;;28.26;32.43;99389.06;2067508;28;19932;-66
2022/07/19 03:35:51;;;;;;;;;;;;;;;28.27;32.56;99385.19;2068320;28;20295;-65
2022/07/19 03:36:52;;;;;;;;;;;;;;;28.26;32.46;99376.03;2065732;28;20368;-65
2022/07/19 03:37:52;;;;;;;;;;;;;;;28.25;32.51;99379.91;2066858;28;20354;-65
2022/07/19 03:38:53;;;;;;;;;;;;;;;28.26;32.58;99386.28;2064171;28;20311;-65
2022/07/19 03:39:53;;;;;;;;;;;;;;;28.26;32.56;99387.13;2068478;28;19919;-65
2022/07/19 03:40:53;;;;;;;;;;;;;;;28.27;32.56;99390.72;2068427;28;19948;-66
2022/07/19 03:41:54;;;;;;;;;;;;;;;28.27;32.69;99383.28;2066018;28;20735;-66
2022/07/19 03:42:54;;;;;;;;;;;;;;;28.27;32.72;99390.72;2067272;28;19921;-66
2022/07/19 03:43:54;;;;;;;;;;;;;;;28.28;32.59;99389.69;2068800;28;20410;-66
2022/07/19 03:44:55;;;;;;;;;;;;;;;28.26;32.66;99381.59;2072197;28;20443;-65
2022/07/19 03:45:55;;;;;;;;;;;;;;;28.27;32.60;99387.97;2064441;28;19948;-66
2022/07/19 03:46:55;;;;;;;;;;;;;;;28.26;32.57;99387.13;2061472;28;19924;-66
2022/07/19 03:47:55;;;;;;;;;;;;;;;28.26;32.68;99380.75;2063013;28;19916;-65
2022/07/19 03:48:56;;;;;;;;;;;;;;;28.26;32.77;99375.19;2065605;28;20137;-65
2022/07/19 03:49:57;;;;;;;;;;;;;;;28.26;32.75;99380.75;2067133;28;19917;-66
2022/07/19 03:50:57;;;;;;;;;;;;;;;28.25;32.65;99381.78;2066487;28;20114;-66
2022/07/19 03:51:57;;;;;;;;;;;;;;;28.26;32.57;99389.06;2063380;28;20019;-66
2022/07/19 03:52:58;;;;;;;;;;;;;;;28.26;32.68;99386.28;2062292;28;20018;-65
2022/07/19 03:53:58;;;;;;;;;;;;;;;28.25;32.39;99381.78;2063753;28;19924;-65
2022/07/19 03:54:58;;;;;;;;;;;;;;;28.24;32.59;99382.88;2061699;28;19925;-65
2022/07/19 03:55:58;;;;;;;;;;;;;;;28.23;32.53;99381.19;2066818;28;19913;-65
2022/07/19 03:56:59;;;;;;;;;;;;;;;28.23;32.23;99383.97;2066652;28;20295;-66
2022/07/19 03:57:59;;;;;;;;;;;;;;;28.22;32.31;99380.31;2066495;28;19970;-65
2022/07/19 03:58:59;;;;;;;;;;;;;;;28.23;32.41;99381.19;2067066;28;20004;-65
2022/07/19 04:00:00;;;;;;;;;;;;;;;28.23;32.34;99387.59;2065873;28;19924;-66
2022/07/19 04:01:00;;;;;;;;;;;;;;;28.24;32.41;99378.19;2061093;28;19987;-65
2022/07/19 04:02:00;;;;;;;;;;;;;;;28.24;32.31;99377.34;2062605;28;20799;-66
2022/07/19 04:03:00;;;;;;;;;;;;;;;28.24;32.57;99383.72;2063133;28;20388;-65
2022/07/19 04:04:01;;;;;;;;;;;;;;;28.24;32.51;99388.44;2069061;28;19917;-66
2022/07/19 04:05:01;;;;;;;;;;;;;;;28.24;32.55;99385.66;2065096;28;19940;-65
2022/07/19 04:06:01;;;;;;;;;;;;;;;28.25;32.50;99390.09;2065621;28;19943;-66
2022/07/19 04:07:02;;;;;;;;;;;;;;;28.25;32.79;99385.44;2068755;28;19913;-65
2022/07/19 04:08:02;;;;;;;;;;;;;;;28.25;32.40;99390.09;2068688;28;19917;-66
2022/07/19 04:09:02;;;;;;;;;;;;;;;28.25;32.64;99390.09;2068904;28;19916;-65
2022/07/19 04:10:03;;;;;;;;;;;;;;;28.25;32.63;99387.34;2064899;28;19972;-66
2022/07/19 04:11:04;;;;;;;;;;;;;;;28.23;32.51;99392.28;2065354;28;19913;-65
2022/07/19 04:12:04;;;;;;;;;;;;;;;28.23;32.29;99387.59;2067367;28;20276;-65
2022/07/19 04:13:04;;;;;;;;;;;;;;;28.22;32.25;99396.94;2065382;28;20564;-65
2022/07/19 04:14:05;;;;;;;;;;;;;;;28.21;32.31;99393.34;2068185;28;20082;-66
2022/07/19 04:15:06;;;;;;;;;;;;;;;28.21;32.31;99395.28;2065940;28;19952;-65
2022/07/19 04:16:06;;;;;;;;;;;;;;;28.22;32.20;99399.72;2066355;28;19927;-65
2022/07/19 04:17:07;;;;;;;;;;;;;;;28.20;32.12;99402.75;2069212;28;19917;-66
2022/07/19 04:18:07;;;;;;;;;;;;;;;28.20;32.13;99401.91;2065636;28;19917;-65
2022/07/19 04:19:07;;;;;;;;;;;;;;;28.18;31.84;99402.13;2067467;28;19913;-65
2022/07/19 04:20:08;;;;;;;;;;;;;;;28.19;31.98;99408.50;2069066;28;20379;-65
2022/07/19 04:21:08;;;;;;;;;;;;;;;28.19;32.14;99402.97;2064286;28;19918;-65
2022/07/19 04:22:09;;;;;;;;;;;;;;;28.20;31.91;99405.50;2068223;28;20710;-65
2022/07/19 04:23:09;;;;;;;;;;;;;;;28.18;32.07;99404.88;2064175;28;20524;-66
2022/07/19 04:24:09;;;;;;;;;;;;;;;28.18;31.95;99407.66;2064780;28;20332;-65
2022/07/19 04:25:10;;;;;;;;;;;;;;;28.17;32.16;99405.97;2060857;28;19924;-65
2022/07/19 04:26:10;;;;;;;;;;;;;;;28.18;32.00;99406.81;2060974;28;19948;-66
2022/07/19 04:27:10;;;;;;;;;;;;;;;28.19;32.00;99403.81;2067969;28;19920;-66
2022/07/19 04:28:11;;;;;;;;;;;;;;;28.19;32.06;99417.66;2065784;28;19921;-65
2022/07/19 04:29:11;;;;;;;;;;;;;;;28.20;32.11;99410.22;2066223;28;19927;-65
2022/07/19 04:30:11;;;;;;;;;;;;;;;28.20;32.13;99411.06;2066155;28;19913;-65
2022/07/19 04:31:11;;;;;;;;;;;;;;;28.20;31.99;99405.50;2065191;28;19960;-66
2022/07/19 04:32:12;;;;;;;;;;;;;;;28.21;31.98;99411.91;2067673;28;19924;-66
2022/07/19 04:33:13;;;;;;;;;;;;;;;28.21;32.03;99417.44;2066000;28;19928;-66
2022/07/19 04:34:13;;;;;;;;;;;;;;;28.21;31.97;99412.75;2067369;28;20442;-66
2022/07/19 04:35:15;;;;;;;;;;;;;;;28.20;31.83;99413.00;2066970;28;20320;-66
2022/07/19 04:36:16;;;;;;;;;;;;;;;28.19;32.06;99416.81;2065654;28;19917;-66
2022/07/19 04:37:16;;;;;;;;;;;;;;;28.19;31.96;99414.03;2067194;28;19929;-66
2022/07/19 04:38:17;;;;;;;;;;;;;;;28.19;32.03;99414.88;2067614;28;19921;-66
2022/07/19 04:39:18;;;;;;;;;;;;;;;28.18;31.99;99413.19;2065747;28;20442;-66
2022/07/19 04:40:19;;;;;;;;;;;;;;;28.19;32.03;99416.81;2071644;28;20011;-68
2022/07/19 04:41:20;;;;;;;;;;;;;;;28.20;31.99;99413.00;2071469;28;19924;-68
2022/07/19 04:42:20;;;;;;;;;;;;;;;28.20;31.80;99422.13;2062774;28;19921;-68
2022/07/19 04:43:20;;;;;;;;;;;;;;;28.20;31.93;99424.06;2072202;28;19917;-68
2022/07/19 04:44:20;;;;;;;;;;;;;;;28.20;32.07;99422.13;2076295;28;19921;-68
2022/07/19 04:45:21;;;;;;;;;;;;;;;28.20;31.94;99424.91;2064412;28;19964;-68
2022/07/19 04:46:21;;;;;;;;;;;;;;;28.20;32.12;99427.69;2071725;28;20004;-67
2022/07/19 04:47:21;;;;;;;;;;;;;;;28.20;32.11;99433.22;2075458;28;19928;-68
2022/07/19 04:48:22;;;;;;;;;;;;;;;28.20;31.97;99433.22;2069734;28;20288;-67
2022/07/19 04:49:22;;;;;;;;;;;;;;;28.21;32.18;99434.06;2069708;28;20008;-67
2022/07/19 04:50:22;;;;;;;;;;;;;;;28.21;32.19;99436.84;2072413;28;19914;-68
2022/07/19 04:51:23;;;;;;;;;;;;;;;28.19;32.01;99442.59;2071522;28;19936;-68
2022/07/19 04:52:23;;;;;;;;;;;;;;;28.18;32.01;99440.06;2077975;28;19916;-67
2022/07/19 04:53:23;;;;;;;;;;;;;;;28.18;32.09;99440.06;2073778;28;19917;-68
2022/07/19 04:54:24;;;;;;;;;;;;;;;28.19;31.99;99450.06;2072910;28;20582;-67
2022/07/19 04:55:24;;;;;;;;;;;;;;;28.19;31.70;99438.97;2079609;28;20103;-68
2022/07/19 04:56:24;;;;;;;;;;;;;;;28.18;31.95;99446.44;2070736;28;19921;-68
2022/07/19 04:57:24;;;;;;;;;;;;;;;28.18;31.51;99452.00;2067472;28;20371;-68
2022/07/19 04:58:25;;;;;;;;;;;;;;;28.18;31.94;99453.91;2076624;28;19921;-67
2022/07/19 04:59:25;;;;;;;;;;;;;;;28.18;31.67;99449.22;2071769;28;19967;-68
2022/07/19 05:00:25;;;;;;;;;;;;;;;28.19;32.01;99459.22;2078297;28;19913;-68
2022/07/19 05:01:26;;;;;;;;;;;;;;;28.19;32.01;99464.75;2069922;28;19913;-68
2022/07/19 05:02:26;;;;;;;;;;;;;;;28.19;31.80;99464.75;2069285;28;19917;-68
2022/07/19 05:03:26;;;;;;;;;;;;;;;28.19;32.05;99463.91;2071304;28;19917;-68
2022/07/19 05:04:27;;;;;;;;;;;;;;;28.19;32.10;99464.75;2070855;28;19943;-68
2022/07/19 05:05:27;;;;;;;;;;;;;;;28.19;32.01;99472.22;2066689;28;19986;-68
2022/07/19 05:06:27;;;;;;;;;;;;;;;28.18;32.05;99468.63;2067890;28;20021;-68
2022/07/19 05:07:28;;;;;;;;;;;;;;;28.19;32.14;99469.47;2068667;28;19953;-68
2022/07/19 05:08:28;;;;;;;;;;;;;;;28.19;32.24;99464.75;2067458;28;19909;-67
2022/07/19 05:09:29;;;;;;;;;;;;;;;28.20;32.35;99472.03;2069353;28;19913;-68
2022/07/19 05:10:29;;;;;;;;;;;;;;;28.19;32.49;99475.84;2069256;28;19924;-68
2022/07/19 05:11:29;;;;;;;;;;;;;;;28.19;32.43;99470.31;2067097;28;19924;-68
2022/07/19 05:12:30;;;;;;;;;;;;;;;28.19;32.49;99475.84;2069799;28;20040;-67
2022/07/19 05:13:30;;;;;;;;;;;;;;;28.19;32.56;99472.22;2070904;28;20619;-68
2022/07/19 05:14:31;;;;;;;;;;;;;;;28.18;32.39;99468.63;2070926;28;19923;-68
2022/07/19 05:15:31;;;;;;;;;;;;;;;28.19;32.54;99480.53;2072473;28;20291;-68
2022/07/19 05:16:31;;;;;;;;;;;;;;;28.19;32.60;99478.63;2072110;28;19909;-68